Altamont, North Carolina
Current Conditions -  °F | °C
As of 9:55 AM on Wednesday 26 Nov 2014 (Local Time) from KTNB Reporting Station
Light Snow Light Snow  
Wind Chill: 33°   Ceiling: 800
Heat Index: 33°   Visibility: 2.5mi
Dew Point: 33°   Wind: 0mph
Humidity: 100%   Direction: NA
Pressure: 29.97"   Gusts: NA
Location:  36.0227°N, 81.9499°W
Report Text: KTNB 261455Z AUTO 00000KT 2 1/2SM -SN BKN008 OVC011 00/00 A2997 RMK AO2 VIS 1 1/2V3 P0005 60022 T00030003
Loading
Personal Weather Stations






























Interactive Weather Map New forecast layout! Learn more

10-Day Weather Forecast

Advertisements
Track Severe Weather on mobile